sensor_id;sensor_type;location;lat;lon;timestamp;P1;P2;P0
62547;PMS7003;48602;45.192;5.722;2023-06-19T00:01:59;16.50;14.50;12.25
62547;PMS7003;48602;45.192;5.722;2023-06-19T00:04:25;13.00;13.00;12.00
62547;PMS7003;48602;45.192;5.722;2023-06-19T00:06:51;10.00;10.00;6.75
62547;PMS7003;48602;45.192;5.722;2023-06-19T00:09:17;13.50;13.50;12.00
62547;PMS7003;48602;45.192;5.722;2023-06-19T00:11:43;14.50;14.25;11.75
62547;PMS7003;48602;45.192;5.722;2023-06-19T00:14:08;15.75;14.50;11.50
62547;PMS7003;48602;45.192;5.722;2023-06-19T00:16:34;14.50;14.50;12.25
62547;PMS7003;48602;45.192;5.722;2023-06-19T00:18:59;18.50;17.50;14.00
62547;PMS7003;48602;45.192;5.722;2023-06-19T00:21:25;16.00;16.00;13.75
62547;PMS7003;48602;45.192;5.722;2023-06-19T00:23:51;12.00;12.00;11.00
62547;PMS7003;48602;45.192;5.722;2023-06-19T00:26:17;13.25;12.00;10.50
62547;PMS7003;48602;45.192;5.722;2023-06-19T00:28:44;13.50;13.50;12.00
62547;PMS7003;48602;45.192;5.722;2023-06-19T00:31:10;15.25;12.75;11.00
62547;PMS7003;48602;45.192;5.722;2023-06-19T00:33:38;15.00;13.75;12.50
62547;PMS7003;48602;45.192;5.722;2023-06-19T00:36:14;14.25;13.25;10.75
62547;PMS7003;48602;45.192;5.722;2023-06-19T00:38:40;14.00;13.50;11.00
62547;PMS7003;48602;45.192;5.722;2023-06-19T00:41:06;16.00;15.75;13.00
62547;PMS7003;48602;45.192;5.722;2023-06-19T00:43:32;12.50;12.00;10.75
62547;PMS7003;48602;45.192;5.722;2023-06-19T00:45:58;13.00;12.25;11.25
62547;PMS7003;48602;45.192;5.722;2023-06-19T00:48:24;14.25;12.75;10.50
62547;PMS7003;48602;45.192;5.722;2023-06-19T00:50:52;15.25;14.50;12.75
62547;PMS7003;48602;45.192;5.722;2023-06-19T00:53:18;14.75;14.75;11.75
62547;PMS7003;48602;45.192;5.722;2023-06-19T00:55:44;17.25;15.00;13.00
62547;PMS7003;48602;45.192;5.722;2023-06-19T00:58:11;12.75;12.00;10.00
62547;PMS7003;48602;45.192;5.722;2023-06-19T01:00:37;15.75;15.00;11.00
62547;PMS7003;48602;45.192;5.722;2023-06-19T01:03:02;13.25;13.25;11.50
62547;PMS7003;48602;45.192;5.722;2023-06-19T01:05:29;13.00;10.25;9.00
62547;PMS7003;48602;45.192;5.722;2023-06-19T01:10:22;14.75;14.25;12.00
62547;PMS7003;48602;45.192;5.722;2023-06-19T01:13:02;14.25;13.25;11.00
62547;PMS7003;48602;45.192;5.722;2023-06-19T01:15:42;14.00;12.25;12.00
62547;PMS7003;48602;45.192;5.722;2023-06-19T01:18:08;14.75;14.75;11.75
62547;PMS7003;48602;45.192;5.722;2023-06-19T01:20:36;12.25;12.00;9.50
62547;PMS7003;48602;45.192;5.722;2023-06-19T01:23:08;9.80;9.80;9.20
62547;PMS7003;48602;45.192;5.722;2023-06-19T01:25:34;12.50;11.50;9.00
62547;PMS7003;48602;45.192;5.722;2023-06-19T01:28:01;11.00;11.00;9.75
62547;PMS7003;48602;45.192;5.722;2023-06-19T01:30:29;10.50;10.50;9.00
62547;PMS7003;48602;45.192;5.722;2023-06-19T01:33:05;15.75;13.75;11.00
62547;PMS7003;48602;45.192;5.722;2023-06-19T01:35:38;14.00;13.50;10.25
62547;PMS7003;48602;45.192;5.722;2023-06-19T01:38:07;13.25;13.25;11.00
62547;PMS7003;48602;45.192;5.722;2023-06-19T01:40:32;14.75;14.75;13.00
62547;PMS7003;48602;45.192;5.722;2023-06-19T01:42:59;15.00;14.60;12.00
62547;PMS7003;48602;45.192;5.722;2023-06-19T01:45:29;15.75;13.50;12.00
62547;PMS7003;48602;45.192;5.722;2023-06-19T01:47:55;17.75;17.75;13.75
62547;PMS7003;48602;45.192;5.722;2023-06-19T01:50:24;9.50;9.00;6.00
62547;PMS7003;48602;45.192;5.722;2023-06-19T01:52:50;13.40;13.40;11.80
62547;PMS7003;48602;45.192;5.722;2023-06-19T01:55:16;12.75;12.75;10.25
62547;PMS7003;48602;45.192;5.722;2023-06-19T01:57:42;14.00;14.00;12.00
62547;PMS7003;48602;45.192;5.722;2023-06-19T02:00:07;16.50;15.00;13.00
62547;PMS7003;48602;45.192;5.722;2023-06-19T02:02:35;17.00;16.00;13.75
62547;PMS7003;48602;45.192;5.722;2023-06-19T02:05:01;16.50;15.50;13.00
62547;PMS7003;48602;45.192;5.722;2023-06-19T02:07:26;17.25;14.50;10.50
62547;PMS7003;48602;45.192;5.722;2023-06-19T02:09:51;14.00;13.25;10.00
62547;PMS7003;48602;45.192;5.722;2023-06-19T02:12:17;13.75;13.25;11.50
62547;PMS7003;48602;45.192;5.722;2023-06-19T02:14:42;13.75;13.75;12.00
62547;PMS7003;48602;45.192;5.722;2023-06-19T02:17:08;15.00;12.25;11.00
62547;PMS7003;48602;45.192;5.722;2023-06-19T02:19:33;12.75;12.75;10.50
62547;PMS7003;48602;45.192;5.722;2023-06-19T02:21:59;10.75;10.00;8.75
62547;PMS7003;48602;45.192;5.722;2023-06-19T02:24:24;14.00;14.00;11.25
62547;PMS7003;48602;45.192;5.722;2023-06-19T02:26:50;16.00;14.25;12.50
62547;PMS7003;48602;45.192;5.722;2023-06-19T02:29:15;12.75;12.75;10.25
62547;PMS7003;48602;45.192;5.722;2023-06-19T02:31:41;15.75;13.00;11.00
62547;PMS7003;48602;45.192;5.722;2023-06-19T02:34:07;18.75;16.25;12.50
62547;PMS7003;48602;45.192;5.722;2023-06-19T02:36:34;14.75;13.25;11.50
62547;PMS7003;48602;45.192;5.722;2023-06-19T02:39:00;13.00;13.00;10.00
62547;PMS7003;48602;45.192;5.722;2023-06-19T02:41:26;15.25;15.25;13.00
62547;PMS7003;48602;45.192;5.722;2023-06-19T02:43:51;14.00;14.00;12.00
62547;PMS7003;48602;45.192;5.722;2023-06-19T02:46:16;15.75;15.25;12.25
62547;PMS7003;48602;45.192;5.722;2023-06-19T02:48:42;16.25;15.75;13.25
62547;PMS7003;48602;45.192;5.722;2023-06-19T02:51:08;12.00;12.00;9.00
62547;PMS7003;48602;45.192;5.722;2023-06-19T02:53:33;12.25;11.25;8.25
62547;PMS7003;48602;45.192;5.722;2023-06-19T02:55:58;15.00;15.00;12.50
62547;PMS7003;48602;45.192;5.722;2023-06-19T02:58:24;16.50;15.00;10.50
62547;PMS7003;48602;45.192;5.722;2023-06-19T03:00:51;17.75;15.25;12.00
62547;PMS7003;48602;45.192;5.722;2023-06-19T03:03:17;15.50;14.50;11.75
62547;PMS7003;48602;45.192;5.722;2023-06-19T03:05:42;14.00;13.50;11.00
62547;PMS7003;48602;45.192;5.722;2023-06-19T03:08:08;14.50;14.00;11.00
62547;PMS7003;48602;45.192;5.722;2023-06-19T03:10:33;15.75;13.75;12.75
62547;PMS7003;48602;45.192;5.722;2023-06-19T03:12:59;16.75;15.50;12.00
62547;PMS7003;48602;45.192;5.722;2023-06-19T03:15:24;15.00;15.00;11.75
62547;PMS7003;48602;45.192;5.722;2023-06-19T03:17:50;15.00;14.25;13.00
62547;PMS7003;48602;45.192;5.722;2023-06-19T03:20:15;16.00;14.75;11.50
62547;PMS7003;48602;45.192;5.722;2023-06-19T03:22:41;15.00;13.25;10.75
62547;PMS7003;48602;45.192;5.722;2023-06-19T03:25:07;15.25;15.00;13.25
62547;PMS7003;48602;45.192;5.722;2023-06-19T03:27:33;12.75;12.75;11.25
62547;PMS7003;48602;45.192;5.722;2023-06-19T03:29:58;21.00;16.00;14.50
62547;PMS7003;48602;45.192;5.722;2023-06-19T03:32:24;12.75;10.00;6.25
62547;PMS7003;48602;45.192;5.722;2023-06-19T03:34:49;17.50;16.25;14.00
62547;PMS7003;48602;45.192;5.722;2023-06-19T03:37:15;15.50;15.50;12.25
62547;PMS7003;48602;45.192;5.722;2023-06-19T03:39:41;17.75;15.50;14.00
62547;PMS7003;48602;45.192;5.722;2023-06-19T03:42:07;18.25;15.50;12.00
62547;PMS7003;48602;45.192;5.722;2023-06-19T03:44:33;17.50;15.25;12.75
62547;PMS7003;48602;45.192;5.722;2023-06-19T03:46:58;15.50;13.75;11.25
62547;PMS7003;48602;45.192;5.722;2023-06-19T03:49:24;16.25;13.50;12.25
62547;PMS7003;48602;45.192;5.722;2023-06-19T03:51:49;14.50;14.50;11.50
62547;PMS7003;48602;45.192;5.722;2023-06-19T03:54:15;18.00;17.00;12.75
62547;PMS7003;48602;45.192;5.722;2023-06-19T03:56:40;17.00;17.00;15.00
62547;PMS7003;48602;45.192;5.722;2023-06-19T03:59:06;12.00;12.00;9.75
62547;PMS7003;48602;45.192;5.722;2023-06-19T04:01:31;15.75;15.50;12.25
62547;PMS7003;48602;45.192;5.722;2023-06-19T04:03:56;14.25;10.25;8.25
62547;PMS7003;48602;45.192;5.722;2023-06-19T04:06:22;21.25;20.50;15.25
62547;PMS7003;48602;45.192;5.722;2023-06-19T04:08:47;14.00;13.50;11.75
62547;PMS7003;48602;45.192;5.722;2023-06-19T04:11:13;16.00;14.50;11.75
62547;PMS7003;48602;45.192;5.722;2023-06-19T04:13:38;15.75;14.25;11.75
62547;PMS7003;48602;45.192;5.722;2023-06-19T04:16:04;13.00;12.50;11.25
62547;PMS7003;48602;45.192;5.722;2023-06-19T04:18:29;17.00;16.75;12.75
62547;PMS7003;48602;45.192;5.722;2023-06-19T04:20:55;8.75;7.00;7.00
62547;PMS7003;48602;45.192;5.722;2023-06-19T04:23:20;16.75;15.75;13.00
62547;PMS7003;48602;45.192;5.722;2023-06-19T04:25:45;12.00;12.00;10.00
62547;PMS7003;48602;45.192;5.722;2023-06-19T04:28:11;14.25;14.25;12.00
62547;PMS7003;48602;45.192;5.722;2023-06-19T04:30:36;15.50;14.25;12.75
62547;PMS7003;48602;45.192;5.722;2023-06-19T04:33:04;14.00;12.00;8.50
62547;PMS7003;48602;45.192;5.722;2023-06-19T04:35:31;14.50;14.25;11.25
62547;PMS7003;48602;45.192;5.722;2023-06-19T04:37:56;18.25;15.75;12.25
62547;PMS7003;48602;45.192;5.722;2023-06-19T04:40:26;15.75;15.75;12.25
62547;PMS7003;48602;45.192;5.722;2023-06-19T04:42:51;17.00;16.75;13.25
62547;PMS7003;48602;45.192;5.722;2023-06-19T04:45:19;14.50;14.50;12.00
62547;PMS7003;48602;45.192;5.722;2023-06-19T04:47:44;16.00;16.00;13.50
62547;PMS7003;48602;45.192;5.722;2023-06-19T04:50:10;16.25;15.00;13.25
62547;PMS7003;48602;45.192;5.722;2023-06-19T04:52:35;17.75;16.00;13.25
62547;PMS7003;48602;45.192;5.722;2023-06-19T04:55:01;18.25;14.75;12.50
62547;PMS7003;48602;45.192;5.722;2023-06-19T04:57:26;16.00;15.00;12.00
62547;PMS7003;48602;45.192;5.722;2023-06-19T04:59:51;14.50;13.75;11.75
62547;PMS7003;48602;45.192;5.722;2023-06-19T05:02:17;15.50;14.75;11.00
62547;PMS7003;48602;45.192;5.722;2023-06-19T05:04:42;17.25;15.00;13.00
62547;PMS7003;48602;45.192;5.722;2023-06-19T05:07:09;16.00;16.00;13.75
62547;PMS7003;48602;45.192;5.722;2023-06-19T05:09:35;16.00;13.00;10.75
62547;PMS7003;48602;45.192;5.722;2023-06-19T05:12:01;17.25;17.25;14.00
62547;PMS7003;48602;45.192;5.722;2023-06-19T05:14:26;15.25;15.25;12.25
62547;PMS7003;48602;45.192;5.722;2023-06-19T05:16:52;19.25;16.00;13.00
62547;PMS7003;48602;45.192;5.722;2023-06-19T05:19:18;15.25;14.00;11.00
62547;PMS7003;48602;45.192;5.722;2023-06-19T05:21:43;17.75;15.50;13.00
62547;PMS7003;48602;45.192;5.722;2023-06-19T05:24:09;17.25;16.75;13.00
62547;PMS7003;48602;45.192;5.722;2023-06-19T05:26:34;12.00;12.00;10.75
62547;PMS7003;48602;45.192;5.722;2023-06-19T05:29:00;15.25;14.00;11.75
62547;PMS7003;48602;45.192;5.722;2023-06-19T05:31:25;16.50;16.25;14.25
62547;PMS7003;48602;45.192;5.722;2023-06-19T05:33:51;17.25;17.00;14.00
62547;PMS7003;48602;45.192;5.722;2023-06-19T05:36:17;15.00;14.75;11.00
62547;PMS7003;48602;45.192;5.722;2023-06-19T05:38:42;15.00;13.25;11.75
62547;PMS7003;48602;45.192;5.722;2023-06-19T05:41:08;16.00;16.00;13.00
62547;PMS7003;48602;45.192;5.722;2023-06-19T05:43:33;15.50;14.00;12.00
62547;PMS7003;48602;45.192;5.722;2023-06-19T05:45:59;18.50;18.50;15.00
62547;PMS7003;48602;45.192;5.722;2023-06-19T05:48:25;17.00;15.75;12.75
62547;PMS7003;48602;45.192;5.722;2023-06-19T05:50:51;17.00;16.50;12.25
62547;PMS7003;48602;45.192;5.722;2023-06-19T05:53:16;18.25;14.00;12.50
62547;PMS7003;48602;45.192;5.722;2023-06-19T05:55:42;16.00;15.75;13.50
62547;PMS7003;48602;45.192;5.722;2023-06-19T05:58:08;15.75;15.75;12.50
62547;PMS7003;48602;45.192;5.722;2023-06-19T06:00:33;15.00;15.00;11.75
62547;PMS7003;48602;45.192;5.722;2023-06-19T06:02:59;18.25;17.75;14.50
62547;PMS7003;48602;45.192;5.722;2023-06-19T06:05:25;16.75;15.75;11.75
62547;PMS7003;48602;45.192;5.722;2023-06-19T06:07:51;17.50;16.00;13.00
62547;PMS7003;48602;45.192;5.722;2023-06-19T06:10:19;23.00;16.25;14.00
62547;PMS7003;48602;45.192;5.722;2023-06-19T06:12:45;15.50;14.75;12.25
62547;PMS7003;48602;45.192;5.722;2023-06-19T06:15:10;24.50;18.25;14.00
62547;PMS7003;48602;45.192;5.722;2023-06-19T06:17:36;16.50;15.50;12.75
62547;PMS7003;48602;45.192;5.722;2023-06-19T06:20:02;15.75;15.00;14.00
62547;PMS7003;48602;45.192;5.722;2023-06-19T06:22:31;20.00;19.25;15.50
62547;PMS7003;48602;45.192;5.722;2023-06-19T06:24:56;16.75;15.75;12.75
62547;PMS7003;48602;45.192;5.722;2023-06-19T06:27:22;17.00;17.00;12.75
62547;PMS7003;48602;45.192;5.722;2023-06-19T06:29:47;15.00;13.25;11.00
62547;PMS7003;48602;45.192;5.722;2023-06-19T06:32:12;18.00;16.00;14.00
62547;PMS7003;48602;45.192;5.722;2023-06-19T06:34:38;16.00;15.25;13.25
62547;PMS7003;48602;45.192;5.722;2023-06-19T06:37:03;17.00;17.00;13.50
62547;PMS7003;48602;45.192;5.722;2023-06-19T06:39:29;21.00;18.75;15.75
62547;PMS7003;48602;45.192;5.722;2023-06-19T06:41:55;14.25;14.25;12.00
62547;PMS7003;48602;45.192;5.722;2023-06-19T06:44:20;18.25;16.75;13.25
62547;PMS7003;48602;45.192;5.722;2023-06-19T06:46:45;20.00;18.25;15.00
62547;PMS7003;48602;45.192;5.722;2023-06-19T06:49:11;20.25;17.50;14.50
62547;PMS7003;48602;45.192;5.722;2023-06-19T06:51:36;18.25;16.00;14.00
62547;PMS7003;48602;45.192;5.722;2023-06-19T06:54:02;17.25;16.00;14.00
62547;PMS7003;48602;45.192;5.722;2023-06-19T06:56:27;17.75;14.75;12.75
62547;PMS7003;48602;45.192;5.722;2023-06-19T06:58:52;19.25;16.25;14.25
62547;PMS7003;48602;45.192;5.722;2023-06-19T07:01:18;19.00;16.00;12.50
62547;PMS7003;48602;45.192;5.722;2023-06-19T07:03:43;17.75;12.75;10.25
62547;PMS7003;48602;45.192;5.722;2023-06-19T07:06:09;20.25;17.75;14.00
62547;PMS7003;48602;45.192;5.722;2023-06-19T07:08:34;15.50;15.00;12.50
62547;PMS7003;48602;45.192;5.722;2023-06-19T07:11:00;18.00;14.50;10.00
62547;PMS7003;48602;45.192;5.722;2023-06-19T07:13:25;21.00;17.75;13.50
62547;PMS7003;48602;45.192;5.722;2023-06-19T07:15:50;16.50;13.50;11.50
62547;PMS7003;48602;45.192;5.722;2023-06-19T07:18:16;19.75;17.75;14.25
62547;PMS7003;48602;45.192;5.722;2023-06-19T07:20:42;20.75;16.50;13.25
62547;PMS7003;48602;45.192;5.722;2023-06-19T07:23:07;17.75;15.75;14.25
62547;PMS7003;48602;45.192;5.722;2023-06-19T07:25:34;17.50;17.50;13.50
62547;PMS7003;48602;45.192;5.722;2023-06-19T07:28:00;18.00;18.00;14.25
62547;PMS7003;48602;45.192;5.722;2023-06-19T07:30:26;21.00;21.00;14.75
62547;PMS7003;48602;45.192;5.722;2023-06-19T07:32:52;20.50;17.00;14.00
62547;PMS7003;48602;45.192;5.722;2023-06-19T07:35:17;16.25;15.50;12.00
62547;PMS7003;48602;45.192;5.722;2023-06-19T07:37:42;21.25;21.25;17.25
62547;PMS7003;48602;45.192;5.722;2023-06-19T07:40:09;18.75;18.25;15.00
62547;PMS7003;48602;45.192;5.722;2023-06-19T07:42:35;17.75;16.50;12.75
62547;PMS7003;48602;45.192;5.722;2023-06-19T07:45:00;20.50;19.00;16.50
62547;PMS7003;48602;45.192;5.722;2023-06-19T07:47:26;24.00;19.50;17.00
62547;PMS7003;48602;45.192;5.722;2023-06-19T07:49:52;21.00;20.50;16.00
62547;PMS7003;48602;45.192;5.722;2023-06-19T07:52:17;20.25;18.50;15.25
62547;PMS7003;48602;45.192;5.722;2023-06-19T07:54:53;19.75;19.50;15.50
62547;PMS7003;48602;45.192;5.722;2023-06-19T07:57:20;20.25;19.75;14.75
62547;PMS7003;48602;45.192;5.722;2023-06-19T07:59:47;24.25;21.75;17.00
62547;PMS7003;48602;45.192;5.722;2023-06-19T08:02:13;22.75;22.00;17.50
62547;PMS7003;48602;45.192;5.722;2023-06-19T08:04:39;22.50;20.50;17.50
62547;PMS7003;48602;45.192;5.722;2023-06-19T08:07:04;25.25;22.25;18.25
62547;PMS7003;48602;45.192;5.722;2023-06-19T08:09:30;23.75;20.50;16.00
62547;PMS7003;48602;45.192;5.722;2023-06-19T08:11:56;18.00;16.75;13.00
62547;PMS7003;48602;45.192;5.722;2023-06-19T08:14:22;20.00;18.50;14.25
62547;PMS7003;48602;45.192;5.722;2023-06-19T08:16:47;24.75;20.75;16.50
62547;PMS7003;48602;45.192;5.722;2023-06-19T08:19:12;17.50;17.50;15.25
62547;PMS7003;48602;45.192;5.722;2023-06-19T08:21:38;22.00;20.25;15.75
62547;PMS7003;48602;45.192;5.722;2023-06-19T08:24:03;27.75;22.50;16.00
62547;PMS7003;48602;45.192;5.722;2023-06-19T08:26:29;19.50;17.25;13.75
62547;PMS7003;48602;45.192;5.722;2023-06-19T08:28:54;19.00;18.50;14.50
62547;PMS7003;48602;45.192;5.722;2023-06-19T08:31:20;18.50;16.50;13.50
62547;PMS7003;48602;45.192;5.722;2023-06-19T08:33:47;19.75;18.50;16.00
62547;PMS7003;48602;45.192;5.722;2023-06-19T08:36:13;17.25;17.00;13.50
62547;PMS7003;48602;45.192;5.722;2023-06-19T08:38:39;16.50;16.50;14.50
62547;PMS7003;48602;45.192;5.722;2023-06-19T08:41:04;18.00;17.25;15.00
62547;PMS7003;48602;45.192;5.722;2023-06-19T08:43:30;19.50;18.75;16.00
62547;PMS7003;48602;45.192;5.722;2023-06-19T08:46:37;20.00;18.00;15.50
62547;PMS7003;48602;45.192;5.722;2023-06-19T08:48:44;23.25;21.25;16.00
62547;PMS7003;48602;45.192;5.722;2023-06-19T08:51:10;25.25;24.75;17.25
62547;PMS7003;48602;45.192;5.722;2023-06-19T08:53:46;22.25;18.75;15.00
62547;PMS7003;48602;45.192;5.722;2023-06-19T08:56:13;26.00;22.50;17.25
62547;PMS7003;48602;45.192;5.722;2023-06-19T08:58:38;21.75;21.00;16.75
62547;PMS7003;48602;45.192;5.722;2023-06-19T09:01:04;24.25;22.25;16.00
62547;PMS7003;48602;45.192;5.722;2023-06-19T09:03:29;28.50;25.50;18.50
62547;PMS7003;48602;45.192;5.722;2023-06-19T09:05:55;24.75;24.00;19.00
62547;PMS7003;48602;45.192;5.722;2023-06-19T09:08:21;24.00;22.50;19.00
62547;PMS7003;48602;45.192;5.722;2023-06-19T09:10:57;25.25;24.50;19.25
62547;PMS7003;48602;45.192;5.722;2023-06-19T09:13:23;25.50;25.00;20.00
62547;PMS7003;48602;45.192;5.722;2023-06-19T09:15:56;27.00;25.25;20.00
62547;PMS7003;48602;45.192;5.722;2023-06-19T09:18:27;18.50;18.50;15.50
62547;PMS7003;48602;45.192;5.722;2023-06-19T09:20:54;23.25;23.25;19.00
62547;PMS7003;48602;45.192;5.722;2023-06-19T09:23:20;23.75;23.75;19.00
62547;PMS7003;48602;45.192;5.722;2023-06-19T09:25:56;23.00;23.00;18.75
62547;PMS7003;48602;45.192;5.722;2023-06-19T09:28:23;26.50;24.50;20.00
62547;PMS7003;48602;45.192;5.722;2023-06-19T09:31:00;23.00;22.25;17.00
62547;PMS7003;48602;45.192;5.722;2023-06-19T09:33:28;22.25;21.00;17.00
62547;PMS7003;48602;45.192;5.722;2023-06-19T09:35:54;26.75;25.50;18.25
62547;PMS7003;48602;45.192;5.722;2023-06-19T09:38:21;23.00;23.00;19.00
62547;PMS7003;48602;45.192;5.722;2023-06-19T09:40:49;25.25;23.25;18.50
62547;PMS7003;48602;45.192;5.722;2023-06-19T09:43:18;23.75;22.25;16.25
62547;PMS7003;48602;45.192;5.722;2023-06-19T09:45:47;22.50;22.50;18.00
62547;PMS7003;48602;45.192;5.722;2023-06-19T09:48:15;26.25;25.25;19.75
62547;PMS7003;48602;45.192;5.722;2023-06-19T09:50:46;26.25;23.00;20.00
62547;PMS7003;48602;45.192;5.722;2023-06-19T09:53:15;25.00;24.00;19.50
62547;PMS7003;48602;45.192;5.722;2023-06-19T09:55:42;23.75;22.00;16.50
62547;PMS7003;48602;45.192;5.722;2023-06-19T09:58:08;28.00;25.75;20.25
62547;PMS7003;48602;45.192;5.722;2023-06-19T10:00:34;28.25;22.50;19.50
62547;PMS7003;48602;45.192;5.722;2023-06-19T10:03:02;27.50;25.00;19.25
62547;PMS7003;48602;45.192;5.722;2023-06-19T10:05:32;24.50;22.50;17.50
62547;PMS7003;48602;45.192;5.722;2023-06-19T10:07:57;22.25;22.25;17.25
62547;PMS7003;48602;45.192;5.722;2023-06-19T10:10:28;24.50;21.75;16.75
62547;PMS7003;48602;45.192;5.722;2023-06-19T10:13:15;22.00;21.50;17.25
62547;PMS7003;48602;45.192;5.722;2023-06-19T10:15:40;24.75;22.25;17.50
62547;PMS7003;48602;45.192;5.722;2023-06-19T10:18:16;26.50;25.00;19.50
62547;PMS7003;48602;45.192;5.722;2023-06-19T10:20:42;25.25;23.25;19.75
62547;PMS7003;48602;45.192;5.722;2023-06-19T10:23:16;26.00;22.25;18.25
62547;PMS7003;48602;45.192;5.722;2023-06-19T10:25:44;16.00;15.00;13.25
62547;PMS7003;48602;45.192;5.722;2023-06-19T10:30:42;23.75;22.75;18.50
62547;PMS7003;48602;45.192;5.722;2023-06-19T10:33:07;27.75;23.75;18.75
62547;PMS7003;48602;45.192;5.722;2023-06-19T10:35:39;28.75;28.00;20.25
62547;PMS7003;48602;45.192;5.722;2023-06-19T10:38:06;25.00;24.75;19.00
62547;PMS7003;48602;45.192;5.722;2023-06-19T10:40:32;24.75;23.00;17.75
62547;PMS7003;48602;45.192;5.722;2023-06-19T10:42:57;26.75;25.50;20.00
62547;PMS7003;48602;45.192;5.722;2023-06-19T10:45:23;24.75;23.75;19.75
62547;PMS7003;48602;45.192;5.722;2023-06-19T10:47:53;28.25;25.25;18.75
62547;PMS7003;48602;45.192;5.722;2023-06-19T10:50:20;30.25;26.75;20.50
62547;PMS7003;48602;45.192;5.722;2023-06-19T10:52:45;18.25;18.25;16.50
62547;PMS7003;48602;45.192;5.722;2023-06-19T10:55:13;26.00;24.50;18.75
62547;PMS7003;48602;45.192;5.722;2023-06-19T10:57:39;25.25;21.75;18.50
62547;PMS7003;48602;45.192;5.722;2023-06-19T11:00:09;26.25;26.25;20.00
62547;PMS7003;48602;45.192;5.722;2023-06-19T11:02:41;26.75;26.50;20.00
62547;PMS7003;48602;45.192;5.722;2023-06-19T11:05:09;20.00;20.00;18.00
62547;PMS7003;48602;45.192;5.722;2023-06-19T11:07:35;27.25;24.50;20.00
62547;PMS7003;48602;45.192;5.722;2023-06-19T11:10:01;24.25;22.75;17.25
62547;PMS7003;48602;45.192;5.722;2023-06-19T11:12:27;25.50;25.50;19.75
62547;PMS7003;48602;45.192;5.722;2023-06-19T11:14:53;23.75;23.75;18.50
62547;PMS7003;48602;45.192;5.722;2023-06-19T11:17:18;22.25;22.25;16.75
62547;PMS7003;48602;45.192;5.722;2023-06-19T11:19:46;14.50;12.00;9.25
62547;PMS7003;48602;45.192;5.722;2023-06-19T11:22:11;23.25;21.25;17.50
62547;PMS7003;48602;45.192;5.722;2023-06-19T11:24:42;26.25;24.00;18.00
62547;PMS7003;48602;45.192;5.722;2023-06-19T11:27:13;22.75;22.25;17.75
62547;PMS7003;48602;45.192;5.722;2023-06-19T11:29:42;22.75;21.00;17.25
62547;PMS7003;48602;45.192;5.722;2023-06-19T11:32:14;17.75;17.25;14.25
62547;PMS7003;48602;45.192;5.722;2023-06-19T11:34:43;23.00;22.00;18.00
62547;PMS7003;48602;45.192;5.722;2023-06-19T11:37:13;19.00;18.00;14.00
62547;PMS7003;48602;45.192;5.722;2023-06-19T11:39:40;21.00;21.00;16.25
62547;PMS7003;48602;45.192;5.722;2023-06-19T11:42:06;18.75;17.00;15.00
62547;PMS7003;48602;45.192;5.722;2023-06-19T11:44:33;18.75;17.50;13.75
62547;PMS7003;48602;45.192;5.722;2023-06-19T11:46:59;19.00;18.25;14.25
62547;PMS7003;48602;45.192;5.722;2023-06-19T11:49:25;15.75;15.75;13.25
62547;PMS7003;48602;45.192;5.722;2023-06-19T11:51:50;13.00;10.50;8.75
62547;PMS7003;48602;45.192;5.722;2023-06-19T11:54:16;15.75;15.75;14.00
62547;PMS7003;48602;45.192;5.722;2023-06-19T11:56:42;19.00;15.25;12.00
62547;PMS7003;48602;45.192;5.722;2023-06-19T11:59:08;17.50;17.25;12.75
62547;PMS7003;48602;45.192;5.722;2023-06-19T12:01:34;19.25;18.25;14.75
62547;PMS7003;48602;45.192;5.722;2023-06-19T12:04:01;16.50;16.25;14.50
62547;PMS7003;48602;45.192;5.722;2023-06-19T12:06:27;15.75;14.00;12.50
62547;PMS7003;48602;45.192;5.722;2023-06-19T12:08:53;18.50;18.25;14.00
62547;PMS7003;48602;45.192;5.722;2023-06-19T12:11:18;17.50;17.00;13.75
62547;PMS7003;48602;45.192;5.722;2023-06-19T12:13:44;21.00;20.25;16.50
62547;PMS7003;48602;45.192;5.722;2023-06-19T12:16:10;18.00;17.25;15.25
62547;PMS7003;48602;45.192;5.722;2023-06-19T12:18:36;20.50;18.25;15.75
62547;PMS7003;48602;45.192;5.722;2023-06-19T12:21:01;13.00;13.00;10.50
62547;PMS7003;48602;45.192;5.722;2023-06-19T12:23:27;21.00;19.50;15.75
62547;PMS7003;48602;45.192;5.722;2023-06-19T12:25:52;15.50;15.50;13.50
62547;PMS7003;48602;45.192;5.722;2023-06-19T12:28:17;19.00;16.00;13.25
62547;PMS7003;48602;45.192;5.722;2023-06-19T12:30:46;20.00;18.50;15.25
62547;PMS7003;48602;45.192;5.722;2023-06-19T12:33:15;18.50;17.00;14.25
62547;PMS7003;48602;45.192;5.722;2023-06-19T12:35:42;16.25;15.00;13.00
62547;PMS7003;48602;45.192;5.722;2023-06-19T12:38:08;18.00;15.50;12.00
62547;PMS7003;48602;45.192;5.722;2023-06-19T12:40:34;20.75;18.50;14.50
62547;PMS7003;48602;45.192;5.722;2023-06-19T12:43:01;17.00;16.00;14.25
62547;PMS7003;48602;45.192;5.722;2023-06-19T12:45:26;15.25;15.00;13.00
62547;PMS7003;48602;45.192;5.722;2023-06-19T12:47:52;18.50;17.50;14.00
62547;PMS7003;48602;45.192;5.722;2023-06-19T12:50:17;16.50;16.50;13.25
62547;PMS7003;48602;45.192;5.722;2023-06-19T12:52:43;17.75;17.75;14.75
62547;PMS7003;48602;45.192;5.722;2023-06-19T12:55:08;17.00;15.75;13.50
62547;PMS7003;48602;45.192;5.722;2023-06-19T12:57:33;19.00;18.00;14.25
62547;PMS7003;48602;45.192;5.722;2023-06-19T12:59:59;18.75;18.75;15.75
62547;PMS7003;48602;45.192;5.722;2023-06-19T13:02:24;16.00;16.00;13.00
62547;PMS7003;48602;45.192;5.722;2023-06-19T13:04:50;17.75;17.25;14.00
62547;PMS7003;48602;45.192;5.722;2023-06-19T13:07:15;17.00;17.00;14.00
62547;PMS7003;48602;45.192;5.722;2023-06-19T13:09:41;15.25;13.50;9.50
62547;PMS7003;48602;45.192;5.722;2023-06-19T13:12:06;17.25;17.25;13.25
62547;PMS7003;48602;45.192;5.722;2023-06-19T13:14:32;18.25;18.25;16.25
62547;PMS7003;48602;45.192;5.722;2023-06-19T13:16:59;15.50;13.75;11.75
62547;PMS7003;48602;45.192;5.722;2023-06-19T13:19:24;17.75;17.75;14.25
62547;PMS7003;48602;45.192;5.722;2023-06-19T13:21:50;18.00;15.25;13.25
62547;PMS7003;48602;45.192;5.722;2023-06-19T13:24:16;18.00;16.00;14.00
62547;PMS7003;48602;45.192;5.722;2023-06-19T13:26:43;18.25;16.00;13.25
62547;PMS7003;48602;45.192;5.722;2023-06-19T13:29:11;18.00;18.00;15.25
62547;PMS7003;48602;45.192;5.722;2023-06-19T13:31:37;17.50;17.00;14.75
62547;PMS7003;48602;45.192;5.722;2023-06-19T13:34:03;19.25;15.50;14.25
62547;PMS7003;48602;45.192;5.722;2023-06-19T13:36:28;15.75;15.25;12.50
62547;PMS7003;48602;45.192;5.722;2023-06-19T13:38:54;21.50;19.50;15.25
62547;PMS7003;48602;45.192;5.722;2023-06-19T13:41:20;19.25;19.25;13.75
62547;PMS7003;48602;45.192;5.722;2023-06-19T13:43:48;18.00;15.75;13.00
62547;PMS7003;48602;45.192;5.722;2023-06-19T13:46:14;17.00;16.00;13.50
62547;PMS7003;48602;45.192;5.722;2023-06-19T13:48:39;17.50;17.50;14.75